»·PEaware :: N172GW KBUR-KFUL

N172GW :: KBUR-KFUL

FLIGHT INFORMATION

Flight Status: Arrived
Operator: Privately registered:
United States
More flights under this callsign
Pilot: Victor C. (32144)
Aircraft: MOONEY M-20 201 202 205 220 ATS MSE
(M20P)
More flights by this aircraft type
Origin: KBUR Bob Hope-Burbank
United States
Destination: KFUL Fullerton Mun
United States
More flights between these airports :: More routes between these airports
Route: VPLRB KEMT
File this flight plan on PilotEdge
Remarks: CAT 9
Altitude:
(Current/Filed)
3,500ft
Speed:
(Current/Filed)
120kts
Departed: 29-Dec-20 08:46 AM
Arrived: 29-Dec-20 09:07 AM
Distance/Time
Traveled:
27nm/0:21
Distance/Time
To Go:
Arrived

Flight Plot

Page will automatically refresh every two minutes.

Flight plan parsing failed; only flown route is shown


Map Options




Map Legend


Flown Route
Filed Route
Departure Airport
Arrival Airport
Navaid (VOR, NDB)
Fix

Horizontal Profiles

Position Reports

Time Latitude Longitude Heading Altitude Ground
Speed
29-Dec-20 07:57 34.199462 -118.359695 0 736ft 0kts
29-Dec-20 07:58 34.199462 -118.359695 0 736ft 0kts
29-Dec-20 07:59 34.199462 -118.359694 0 736ft 0kts
29-Dec-20 08:00 34.199462 -118.359695 0 736ft 0kts
29-Dec-20 08:01 34.199462 -118.359694 0 736ft 0kts
29-Dec-20 08:02 34.199462 -118.359694 0 736ft 0kts
29-Dec-20 08:03 34.199462 -118.359695 0 736ft 0kts
29-Dec-20 08:04 34.199462 -118.359695 0 736ft 0kts
29-Dec-20 08:05 34.199462 -118.359694 0 736ft 0kts
29-Dec-20 08:06 34.199462 -118.359695 0 736ft 0kts
29-Dec-20 08:07 34.199462 -118.359695 0 736ft 0kts
29-Dec-20 08:08 34.199462 -118.359695 0 736ft 0kts
29-Dec-20 08:09 34.199462 -118.359695 0 736ft 0kts
29-Dec-20 08:10 34.199462 -118.359694 0 736ft 0kts
29-Dec-20 08:11 34.199462 -118.359694 0 736ft 0kts
29-Dec-20 08:12 34.199462 -118.359694 0 736ft 0kts
29-Dec-20 08:13 34.199462 -118.359694 0 736ft 0kts
29-Dec-20 08:14 34.199462 -118.359694 0 736ft 0kts
29-Dec-20 08:15 34.199462 -118.359694 0 736ft 0kts
29-Dec-20 08:16 34.199462 -118.359694 0 736ft 0kts
29-Dec-20 08:17 34.199462 -118.359694 0 736ft 0kts
29-Dec-20 08:18 34.199462 -118.359694 0 736ft 0kts
29-Dec-20 08:19 34.199462 -118.359695 0 736ft 0kts
29-Dec-20 08:20 34.199462 -118.359695 0 736ft 0kts
29-Dec-20 08:21 34.199462 -118.359695 0 736ft 0kts
29-Dec-20 08:22 34.199462 -118.359695 0 736ft 0kts
29-Dec-20 08:23 34.199462 -118.359695 0 736ft 0kts
29-Dec-20 08:24 34.199462 -118.359695 0 736ft 0kts
29-Dec-20 08:25 34.199462 -118.359695 0 736ft 0kts
29-Dec-20 08:26 34.199462 -118.359695 0 736ft 0kts
29-Dec-20 08:27 34.199462 -118.359695 0 736ft 0kts
29-Dec-20 08:28 34.199462 -118.359695 0 736ft 0kts
29-Dec-20 08:29 34.199462 -118.359695 0 736ft 0kts
29-Dec-20 08:30 34.199462 -118.359695 0 736ft 0kts
29-Dec-20 08:31 34.199462 -118.359695 0 736ft 0kts
29-Dec-20 08:32 34.199462 -118.359695 0 736ft 0kts
29-Dec-20 08:33 34.199462 -118.359694 0 736ft 0kts
29-Dec-20 08:35 34.199668 -118.358774 98 736ft 0kts
29-Dec-20 08:36 34.200317 -118.358296 348 737ft 5kts
29-Dec-20 08:37 34.202302 -118.358852 347 736ft 9kts
29-Dec-20 08:38 34.206075 -118.359877 346 736ft 18kts
29-Dec-20 08:39 34.211015 -118.361242 346 736ft 9kts
29-Dec-20 08:40 34.211998 -118.361365 139 736ft 0kts
29-Dec-20 08:41 34.211998 -118.361365 139 736ft 0kts
29-Dec-20 08:42 34.211998 -118.361365 139 736ft 0kts
29-Dec-20 08:43 34.211998 -118.361365 139 736ft 0kts
29-Dec-20 08:44 34.211998 -118.361365 139 736ft 0kts
29-Dec-20 08:45 34.210942 -118.360055 168 737ft 35kts
29-Dec-20 08:46 34.191248 -118.354320 154 1248ft 77kts
29-Dec-20 08:47 34.182388 -118.333822 106 1926ft 84kts
29-Dec-20 08:48 34.178399 -118.308565 98 2479ft 100kts
29-Dec-20 08:49 34.172128 -118.273612 102 2515ft 124kts
29-Dec-20 08:49 34.165277 -118.243522 101 2843ft 103kts
29-Dec-20 08:51 34.157648 -118.202950 103 3170ft 108kts
29-Dec-20 08:52 34.150228 -118.170389 103 3497ft 108kts
29-Dec-20 08:52 34.143919 -118.142279 103 3630ft 119kts
29-Dec-20 08:54 34.127601 -118.101078 131 3503ft 137kts
29-Dec-20 08:54 34.106131 -118.074754 132 3483ft 134kts
29-Dec-20 08:55 34.080573 -118.043915 132 3470ft 131kts
29-Dec-20 08:56 34.055200 -118.017087 150 3446ft 113kts
29-Dec-20 08:57 34.029372 -118.002596 152 3443ft 94kts
29-Dec-20 08:58 34.005306 -117.989646 152 3440ft 107kts
29-Dec-20 08:59 33.977149 -117.974018 153 3049ft 129kts
29-Dec-20 09:00 33.950683 -117.958369 152 2579ft 99kts
29-Dec-20 09:01 33.929023 -117.944524 161 1924ft 91kts
29-Dec-20 09:02 33.905880 -117.938722 170 1337ft 94kts
29-Dec-20 09:03 33.881940 -117.939218 193 1183ft 101kts
29-Dec-20 09:04 33.875290 -117.954627 273 709ft 97kts
29-Dec-20 09:05 33.872931 -117.974981 256 118ft 77kts
29-Dec-20 09:06 33.871402 -117.981167 171 90ft 0kts
29-Dec-20 09:07 33.871402 -117.981167 171 90ft 0kts
29-Dec-20 09:08 33.870972 -117.980935 132 90ft 7kts
29-Dec-20 09:09 33.871146 -117.979442 59 93ft 0kts

Navigation Log

Ident Type
Flight plan parsing failed, navigation log unavailable